createdAt,value
2022-09-07T00:01:07.249Z,20.16
2022-09-07T00:03:35.282Z,20.16
2022-09-07T00:06:09.069Z,20.13
2022-09-07T00:08:37.106Z,20.12
2022-09-07T00:11:08.059Z,20.10
2022-09-07T00:13:38.110Z,20.08
2022-09-07T00:16:07.246Z,20.08
2022-09-07T00:18:35.105Z,20.08
2022-09-07T00:21:04.908Z,20.09
2022-09-07T00:23:35.174Z,20.08
2022-09-07T00:26:04.536Z,20.08
2022-09-07T00:28:32.802Z,20.07
2022-09-07T00:31:00.438Z,20.07
2022-09-07T00:33:28.793Z,20.05
2022-09-07T00:35:56.522Z,20.06
2022-09-07T00:38:24.234Z,20.05
2022-09-07T00:40:53.280Z,20.05
2022-09-07T00:43:31.040Z,20.05
2022-09-07T00:45:58.686Z,20.07
2022-09-07T00:48:31.394Z,20.12
2022-09-07T00:51:03.313Z,20.11
2022-09-07T00:53:34.577Z,20.12
2022-09-07T00:56:04.894Z,20.12
2022-09-07T00:58:36.088Z,20.12
2022-09-07T01:01:04.454Z,20.10
2022-09-07T01:03:37.405Z,20.06
2022-09-07T01:06:12.693Z,20.01
2022-09-07T01:08:41.821Z,19.99
2022-09-07T01:11:11.624Z,19.96
2022-09-07T01:13:40.392Z,19.93
2022-09-07T01:16:16.805Z,19.89
2022-09-07T01:18:53.734Z,19.86
2022-09-07T01:21:28.066Z,19.83
2022-09-07T01:24:24.507Z,19.82
2022-09-07T01:27:38.579Z,19.80
2022-09-07T01:30:09.163Z,19.74
2022-09-07T01:32:53.769Z,19.73
2022-09-07T01:35:26.592Z,19.70
2022-09-07T01:38:01.708Z,19.69
2022-09-07T01:40:39.495Z,19.67
2022-09-07T01:43:13.711Z,19.64
2022-09-07T01:45:45.645Z,19.62
2022-09-07T01:48:18.959Z,19.60
2022-09-07T01:50:53.520Z,19.57
2022-09-07T01:53:27.320Z,19.55
2022-09-07T01:56:01.822Z,19.53
2022-09-07T01:58:36.139Z,19.50
2022-09-07T02:01:07.876Z,19.48
2022-09-07T02:03:40.019Z,19.48
2022-09-07T02:06:14.953Z,19.44
2022-09-07T02:08:46.719Z,19.43
2022-09-07T02:11:17.921Z,19.42
2022-09-07T02:13:51.333Z,19.40
2022-09-07T02:16:23.668Z,19.39
2022-09-07T02:18:56.810Z,19.36
2022-09-07T02:21:29.983Z,19.36
2022-09-07T02:24:01.983Z,19.34
2022-09-07T02:26:30.152Z,19.35
2022-09-07T02:28:59.328Z,19.33
2022-09-07T02:31:27.669Z,19.32
2022-09-07T02:33:55.363Z,19.26
2022-09-07T02:36:27.469Z,19.23
2022-09-07T02:38:55.106Z,19.20
2022-09-07T02:41:34.538Z,19.18
2022-09-07T02:44:07.511Z,19.16
2022-09-07T02:46:46.870Z,19.14
2022-09-07T02:49:30.902Z,19.13
2022-09-07T02:52:08.716Z,19.13
2022-09-07T02:54:48.827Z,19.10
2022-09-07T02:57:27.360Z,19.07
2022-09-07T03:00:06.969Z,19.06
2022-09-07T03:02:43.420Z,19.04
2022-09-07T03:05:17.594Z,19.00
2022-09-07T03:07:50.929Z,18.96
2022-09-07T03:10:19.449Z,18.94
2022-09-07T03:12:48.854Z,18.93
2022-09-07T03:15:20.941Z,18.91
2022-09-07T03:17:49.326Z,18.88
2022-09-07T03:20:17.499Z,18.87
2022-09-07T03:22:45.636Z,18.86
2022-09-07T03:25:13.851Z,18.82
2022-09-07T03:27:41.565Z,18.79
2022-09-07T03:30:11.135Z,18.77
2022-09-07T03:32:40.571Z,18.75
2022-09-07T03:35:09.373Z,18.73
2022-09-07T03:37:37.767Z,18.70
2022-09-07T03:40:06.671Z,18.65
2022-09-07T03:42:34.490Z,18.62
2022-09-07T03:45:02.131Z,18.58
2022-09-07T03:47:29.852Z,18.55
2022-09-07T03:49:58.840Z,18.51
2022-09-07T03:52:26.759Z,18.46
2022-09-07T03:54:54.392Z,18.40
2022-09-07T03:57:22.326Z,18.36
2022-09-07T03:59:50.555Z,18.32
2022-09-07T04:02:18.641Z,18.28
2022-09-07T04:04:47.027Z,18.24
2022-09-07T04:07:16.491Z,18.19
2022-09-07T04:09:44.090Z,18.16
2022-09-07T04:12:11.846Z,18.11
2022-09-07T04:14:39.490Z,18.08
2022-09-07T04:17:07.255Z,18.05
2022-09-07T04:19:35.003Z,18.00
2022-09-07T04:22:02.584Z,17.94
2022-09-07T04:24:32.000Z,17.91
2022-09-07T04:26:59.806Z,17.85
2022-09-07T04:29:27.416Z,17.81
2022-09-07T04:31:55.111Z,17.77
2022-09-07T04:34:22.807Z,17.73
2022-09-07T04:36:50.412Z,17.70
2022-09-07T04:39:18.186Z,17.67
2022-09-07T04:41:47.140Z,17.61
2022-09-07T04:44:16.969Z,17.58
2022-09-07T04:46:44.918Z,17.54
2022-09-07T04:49:13.640Z,17.53
2022-09-07T04:51:44.209Z,17.50
2022-09-07T04:54:12.380Z,17.46
2022-09-07T04:56:39.976Z,17.43
2022-09-07T04:59:09.187Z,17.38
2022-09-07T05:01:36.799Z,17.34
2022-09-07T05:04:05.637Z,17.31
2022-09-07T05:06:33.470Z,17.26
2022-09-07T05:09:01.399Z,17.23
2022-09-07T05:11:30.241Z,17.20
2022-09-07T05:13:58.773Z,17.16
2022-09-07T05:16:28.355Z,17.12
2022-09-07T05:18:58.382Z,17.10
2022-09-07T05:21:28.087Z,17.08
2022-09-07T05:23:57.974Z,17.04
2022-09-07T05:26:27.794Z,17.02
2022-09-07T05:31:45.028Z,16.98
2022-09-07T05:36:56.787Z,16.92
2022-09-07T05:39:24.762Z,16.89
2022-09-07T05:41:52.413Z,16.86
2022-09-07T05:47:09.322Z,16.85
2022-09-07T05:49:37.444Z,16.82
2022-09-07T05:52:05.048Z,16.85
2022-09-07T05:54:32.803Z,16.83
2022-09-07T05:57:00.452Z,16.85
2022-09-07T05:59:28.032Z,16.89
2022-09-07T06:01:55.962Z,16.91
2022-09-07T06:04:25.080Z,16.93
2022-09-07T06:07:18.046Z,16.93
2022-09-07T06:12:28.566Z,16.98
2022-09-07T06:14:56.126Z,16.99
2022-09-07T06:17:23.769Z,17.00
2022-09-07T06:19:52.714Z,17.06
2022-09-07T06:22:20.284Z,17.12
2022-09-07T06:24:48.305Z,17.15
2022-09-07T06:27:15.911Z,17.18
2022-09-07T06:29:43.531Z,17.20
2022-09-07T06:35:00.217Z,17.35
2022-09-07T06:37:27.932Z,17.42
2022-09-07T06:39:55.591Z,17.49
2022-09-07T06:42:23.392Z,17.56
2022-09-07T06:44:53.752Z,17.65
2022-09-07T06:47:21.346Z,17.71
2022-09-07T06:49:48.923Z,17.76
2022-09-07T06:52:17.911Z,17.81
2022-09-07T06:55:01.226Z,17.88
2022-09-07T06:57:29.143Z,17.93
2022-09-07T06:59:56.740Z,17.97
2022-09-07T07:02:24.327Z,18.02
2022-09-07T07:04:51.928Z,18.07
2022-09-07T07:07:20.949Z,18.14
2022-09-07T07:09:50.809Z,18.22
2022-09-07T07:14:45.323Z,18.38
2022-09-07T07:17:13.331Z,18.48
2022-09-07T07:19:41.163Z,18.57
2022-09-07T07:22:45.675Z,18.67
2022-09-07T07:24:57.748Z,18.75
2022-09-07T07:27:25.360Z,18.81
2022-09-07T07:29:53.831Z,18.85
2022-09-07T07:32:21.693Z,18.88
2022-09-07T07:34:49.282Z,18.93
2022-09-07T07:37:17.341Z,18.99
2022-09-07T07:42:35.491Z,19.10
2022-09-07T07:47:51.915Z,19.20
2022-09-07T07:50:35.241Z,19.25
2022-09-07T07:55:50.932Z,19.38
2022-09-07T07:58:20.441Z,19.45
2022-09-07T08:00:54.823Z,19.49
2022-09-07T08:03:23.516Z,19.55
2022-09-07T08:05:51.049Z,19.60
2022-09-07T08:08:18.799Z,19.64
2022-09-07T08:10:47.715Z,19.69
2022-09-07T08:13:15.319Z,19.74
2022-09-07T08:15:46.176Z,19.77
2022-09-07T08:18:14.896Z,19.81
2022-09-07T08:20:43.436Z,19.85
2022-09-07T08:23:11.768Z,19.90
2022-09-07T08:25:39.486Z,19.95
2022-09-07T08:28:07.204Z,19.99
2022-09-07T08:30:35.003Z,20.04
2022-09-07T08:33:03.898Z,20.08
2022-09-07T08:35:31.564Z,20.12
2022-09-07T08:37:59.209Z,20.15
2022-09-07T08:40:27.083Z,20.17
2022-09-07T08:43:04.350Z,20.21
2022-09-07T08:45:37.811Z,20.23
2022-09-07T08:48:06.885Z,20.25
2022-09-07T08:50:41.839Z,20.30
2022-09-07T08:53:15.206Z,20.31
2022-09-07T08:55:50.215Z,20.34
2022-09-07T08:58:47.599Z,20.40
2022-09-07T09:04:19.384Z,20.47
2022-09-07T09:07:02.390Z,20.54
2022-09-07T09:09:46.750Z,20.61
2022-09-07T09:12:21.164Z,20.69
2022-09-07T09:15:08.096Z,20.79
2022-09-07T09:17:42.424Z,20.90
2022-09-07T09:20:23.385Z,20.97
2022-09-07T09:22:52.824Z,21.01
2022-09-07T09:25:22.944Z,21.03
2022-09-07T09:27:50.951Z,21.06
2022-09-07T09:30:21.304Z,21.10
2022-09-07T09:32:52.487Z,21.14
2022-09-07T09:35:30.138Z,21.15
2022-09-07T09:37:58.549Z,21.17
2022-09-07T09:40:28.508Z,21.17
2022-09-07T09:43:07.785Z,21.16
2022-09-07T09:48:33.425Z,21.15
2022-09-07T09:53:57.297Z,21.20
2022-09-07T09:56:37.939Z,21.23
2022-09-07T10:05:28.571Z,21.35
2022-09-07T10:07:58.340Z,21.33
2022-09-07T10:10:27.610Z,21.32
2022-09-07T10:12:55.918Z,21.34
2022-09-07T10:15:40.464Z,21.35
2022-09-07T10:18:18.928Z,21.40
2022-09-07T10:20:46.532Z,21.41
2022-09-07T10:23:23.271Z,21.43
2022-09-07T10:25:51.103Z,21.44
2022-09-07T10:28:21.206Z,21.47
2022-09-07T10:31:00.012Z,21.52
2022-09-07T10:33:38.240Z,21.59
2022-09-07T10:36:13.283Z,21.63
2022-09-07T10:38:50.861Z,21.67
2022-09-07T10:41:24.158Z,21.72
2022-09-07T10:43:52.574Z,21.75
2022-09-07T10:49:27.356Z,21.81
2022-09-07T10:52:10.509Z,21.80
2022-09-07T10:54:48.457Z,21.82
2022-09-07T10:57:35.784Z,21.83
2022-09-07T11:00:10.705Z,21.85
2022-09-07T11:06:08.995Z,21.86
2022-09-07T11:14:26.494Z,21.97
2022-09-07T11:16:58.282Z,22.02
2022-09-07T11:19:37.477Z,22.09
2022-09-07T11:22:16.830Z,22.11
2022-09-07T11:25:29.104Z,22.18
2022-09-07T11:27:43.434Z,22.25
2022-09-07T11:30:19.640Z,22.27
2022-09-07T11:32:54.418Z,22.30
2022-09-07T11:35:31.072Z,22.32
2022-09-07T11:38:03.821Z,22.39
2022-09-07T11:40:35.244Z,22.45
2022-09-07T11:43:17.512Z,22.52
2022-09-07T11:45:50.311Z,22.59
2022-09-07T11:48:22.764Z,22.64
2022-09-07T11:50:54.805Z,22.70
2022-09-07T11:53:27.276Z,22.67
2022-09-07T11:55:59.246Z,22.66
2022-09-07T11:58:48.384Z,22.70
2022-09-07T12:01:27.842Z,22.73
2022-09-07T12:04:35.726Z,22.75
2022-09-07T12:07:27.734Z,22.78
2022-09-07T12:10:11.201Z,22.81
2022-09-07T12:12:56.562Z,22.83
2022-09-07T12:15:36.865Z,22.87
2022-09-07T12:18:27.536Z,22.94
2022-09-07T12:20:55.144Z,23.00
2022-09-07T12:23:48.554Z,23.09
2022-09-07T12:26:50.267Z,23.12
2022-09-07T12:29:23.881Z,23.15
2022-09-07T12:31:59.293Z,23.17
2022-09-07T12:39:01.280Z,23.21
2022-09-07T12:41:47.422Z,23.21
2022-09-07T12:44:28.564Z,23.15
2022-09-07T12:47:01.017Z,23.15
2022-09-07T12:49:35.726Z,23.21
2022-09-07T12:52:16.119Z,23.17
2022-09-07T12:55:04.649Z,23.24
2022-09-07T12:57:44.976Z,23.30
2022-09-07T13:00:19.456Z,23.32
2022-09-07T13:09:35.034Z,23.20
2022-09-07T13:12:07.152Z,23.21
2022-09-07T13:14:39.372Z,23.26
2022-09-07T13:17:41.533Z,23.33
2022-09-07T13:20:19.521Z,23.43
2022-09-07T13:23:09.386Z,23.48
2022-09-07T13:25:46.279Z,23.51
2022-09-07T13:28:24.352Z,23.55
2022-09-07T13:31:05.810Z,23.58
2022-09-07T13:33:45.909Z,23.64
2022-09-07T13:36:26.797Z,23.70
2022-09-07T13:38:56.618Z,23.70
2022-09-07T13:41:29.083Z,23.74
2022-09-07T13:44:01.800Z,23.75
2022-09-07T13:46:44.944Z,23.82
2022-09-07T13:49:28.963Z,23.93
2022-09-07T13:52:06.354Z,24.04
2022-09-07T13:54:51.676Z,24.13
2022-09-07T13:57:26.759Z,24.18
2022-09-07T13:59:56.210Z,24.28
2022-09-07T14:02:28.198Z,24.31
2022-09-07T14:04:57.234Z,24.35
2022-09-07T14:07:26.166Z,24.42
2022-09-07T14:10:11.674Z,24.43
2022-09-07T14:12:44.434Z,24.49
2022-09-07T14:15:20.940Z,24.58
2022-09-07T14:17:49.447Z,24.69
2022-09-07T14:20:18.859Z,24.80
2022-09-07T14:22:49.469Z,24.87
2022-09-07T14:25:23.035Z,24.95
2022-09-07T14:27:51.228Z,25.02
2022-09-07T14:30:26.137Z,25.02
2022-09-07T14:32:55.716Z,25.00
2022-09-07T14:35:25.780Z,25.00
2022-09-07T14:37:54.055Z,24.97
2022-09-07T14:40:25.267Z,24.99
2022-09-07T14:42:55.684Z,25.00
2022-09-07T14:45:35.150Z,25.03
2022-09-07T14:48:13.502Z,25.09
2022-09-07T14:50:47.643Z,25.10
2022-09-07T14:53:36.168Z,25.08
2022-09-07T14:56:10.916Z,25.04
2022-09-07T14:58:38.693Z,25.00
2022-09-07T15:04:18.246Z,24.95
2022-09-07T15:07:02.361Z,24.91
2022-09-07T15:09:36.061Z,24.92
2022-09-07T15:12:17.784Z,24.88
2022-09-07T15:14:45.674Z,24.83
2022-09-07T15:20:40.893Z,24.74
2022-09-07T15:23:12.577Z,24.72
2022-09-07T15:25:43.276Z,24.72
2022-09-07T15:34:00.102Z,24.71
2022-09-07T15:36:28.777Z,24.71
2022-09-07T15:39:00.275Z,24.70
2022-09-07T15:41:29.166Z,24.69
2022-09-07T15:43:58.607Z,24.67
2022-09-07T15:46:26.910Z,24.64
2022-09-07T15:48:56.749Z,24.62
2022-09-07T15:54:13.975Z,24.58
2022-09-07T15:56:42.810Z,24.53
2022-09-07T15:59:12.820Z,24.51
2022-09-07T16:01:56.645Z,24.51
2022-09-07T16:04:25.196Z,24.49
2022-09-07T16:06:52.856Z,24.46
2022-09-07T16:09:22.120Z,24.43
2022-09-07T16:11:50.643Z,24.41
2022-09-07T16:14:20.098Z,24.37
2022-09-07T16:19:35.994Z,24.31
2022-09-07T16:22:04.188Z,24.25
2022-09-07T16:24:32.209Z,24.21
2022-09-07T16:26:59.860Z,24.18
2022-09-07T16:29:28.894Z,24.15
2022-09-07T16:34:44.937Z,24.11
2022-09-07T16:37:12.581Z,24.07
2022-09-07T16:39:40.228Z,24.03
2022-09-07T16:42:08.959Z,24.00
2022-09-07T16:44:38.396Z,23.97
2022-09-07T16:47:08.001Z,23.94
2022-09-07T16:49:35.733Z,23.90
2022-09-07T16:52:05.237Z,23.86
2022-09-07T16:54:32.919Z,23.85
2022-09-07T16:57:00.533Z,23.83
2022-09-07T16:59:28.459Z,23.81
2022-09-07T17:01:57.384Z,23.78
2022-09-07T17:04:25.228Z,23.74
2022-09-07T17:06:54.383Z,23.73
2022-09-07T17:09:26.202Z,23.66
2022-09-07T17:11:53.945Z,23.65
2022-09-07T17:14:21.528Z,23.62
2022-09-07T17:16:49.147Z,23.58
2022-09-07T17:19:33.668Z,23.54
2022-09-07T17:22:01.372Z,23.49
2022-09-07T17:24:32.209Z,23.45
2022-09-07T17:27:00.291Z,23.41
2022-09-07T17:29:30.360Z,23.34
2022-09-07T17:34:48.591Z,23.18
2022-09-07T17:37:16.356Z,23.12
2022-09-07T17:39:44.558Z,23.07
2022-09-07T17:42:13.225Z,23.00
2022-09-07T17:44:40.764Z,22.95
2022-09-07T17:47:08.814Z,22.88
2022-09-07T17:49:36.589Z,22.83
2022-09-07T17:52:05.643Z,22.77
2022-09-07T17:54:34.222Z,22.70
2022-09-07T17:57:01.779Z,22.62
2022-09-07T18:02:17.170Z,22.47
2022-09-07T18:04:44.844Z,22.40
2022-09-07T18:07:13.857Z,22.31
2022-09-07T18:09:41.416Z,22.25
2022-09-07T18:12:09.080Z,22.18
2022-09-07T18:14:36.675Z,22.07
2022-09-07T18:17:05.025Z,21.98
2022-09-07T18:19:32.769Z,21.89
2022-09-07T18:22:02.702Z,21.81
2022-09-07T18:24:31.808Z,21.74
2022-09-07T18:26:59.345Z,21.69
2022-09-07T18:29:32.303Z,21.59
2022-09-07T18:32:02.332Z,21.49
2022-09-07T18:34:30.719Z,21.37
2022-09-07T18:36:59.070Z,21.27
2022-09-07T18:39:27.060Z,21.16
2022-09-07T18:41:56.340Z,21.06
2022-09-07T18:47:21.437Z,20.88
2022-09-07T18:49:51.146Z,20.78
2022-09-07T18:55:08.469Z,20.66
2022-09-07T18:57:37.422Z,20.61
2022-09-07T19:00:06.730Z,20.53
2022-09-07T19:02:35.698Z,20.48
2022-09-07T19:07:51.954Z,20.36
2022-09-07T19:10:19.603Z,20.30
2022-09-07T19:12:48.560Z,20.22
2022-09-07T19:15:16.296Z,20.16
2022-09-07T19:17:43.907Z,20.08
2022-09-07T19:20:11.774Z,19.99
2022-09-07T19:22:39.316Z,19.93
2022-09-07T19:25:07.411Z,19.86
2022-09-07T19:27:35.193Z,19.81
2022-09-07T19:30:04.535Z,19.76
2022-09-07T19:32:32.149Z,19.69
2022-09-07T19:34:59.680Z,19.63
2022-09-07T19:37:28.841Z,19.57
2022-09-07T19:39:56.805Z,19.53
2022-09-07T19:42:25.419Z,19.49
2022-09-07T19:44:54.136Z,19.46
2022-09-07T19:47:24.126Z,19.41
2022-09-07T19:49:52.163Z,19.36
2022-09-07T19:52:19.912Z,19.32
2022-09-07T19:54:47.444Z,19.27
2022-09-07T19:57:15.135Z,19.23
2022-09-07T19:59:42.763Z,19.18
2022-09-07T20:02:10.675Z,19.13
2022-09-07T20:04:39.728Z,19.07
2022-09-07T20:07:07.986Z,19.02
2022-09-07T20:09:36.548Z,18.99
2022-09-07T20:12:06.678Z,18.94
2022-09-07T20:14:34.334Z,18.90
2022-09-07T20:17:02.323Z,18.84
2022-09-07T20:19:30.001Z,18.79
2022-09-07T20:21:58.928Z,18.74
2022-09-07T20:24:26.931Z,18.70
2022-09-07T20:26:54.522Z,18.67
2022-09-07T20:29:29.470Z,18.63
2022-09-07T20:31:58.357Z,18.57
2022-09-07T20:34:26.232Z,18.52
2022-09-07T20:36:53.859Z,18.48
2022-09-07T20:39:22.885Z,18.42
2022-09-07T20:41:50.618Z,18.38
2022-09-07T20:44:18.499Z,18.36
2022-09-07T20:46:46.095Z,18.30
2022-09-07T20:49:14.255Z,18.27
2022-09-07T20:51:41.871Z,18.24
2022-09-07T20:54:10.046Z,18.20
2022-09-07T20:56:38.991Z,18.18
2022-09-07T20:59:06.773Z,18.14
2022-09-07T21:01:35.110Z,18.13
2022-09-07T21:04:03.928Z,18.12
2022-09-07T21:06:32.606Z,18.08
2022-09-07T21:09:00.524Z,18.04
2022-09-07T21:11:33.523Z,17.99
2022-09-07T21:14:05.973Z,17.96
2022-09-07T21:16:34.297Z,17.95
2022-09-07T21:19:03.090Z,17.92
2022-09-07T21:21:38.399Z,17.88
2022-09-07T21:24:07.708Z,17.85
2022-09-07T21:26:35.261Z,17.83
2022-09-07T21:29:05.961Z,17.81
2022-09-07T21:31:34.516Z,17.80
2022-09-07T21:34:03.060Z,17.79
2022-09-07T21:36:30.940Z,17.78
2022-09-07T21:38:58.542Z,17.75
2022-09-07T21:41:26.473Z,17.72
2022-09-07T21:43:57.187Z,17.70
2022-09-07T21:46:27.735Z,17.68
2022-09-07T21:48:56.656Z,17.63
2022-09-07T21:51:25.585Z,17.58
2022-09-07T21:53:53.604Z,17.57
2022-09-07T21:56:22.041Z,17.55
2022-09-07T21:58:53.651Z,17.53
2022-09-07T22:01:21.505Z,17.51
2022-09-07T22:04:08.990Z,17.47
2022-09-07T22:06:37.591Z,17.43
2022-09-07T22:09:05.947Z,17.40
2022-09-07T22:11:33.726Z,17.37
2022-09-07T22:14:02.957Z,17.33
2022-09-07T22:16:31.179Z,17.29
2022-09-07T22:18:59.048Z,17.30
2022-09-07T22:21:29.362Z,17.29
2022-09-07T22:23:59.401Z,17.26
2022-09-07T22:26:28.859Z,17.25
2022-09-07T22:28:57.113Z,17.22
2022-09-07T22:31:26.646Z,17.19
2022-09-07T22:33:55.219Z,17.16
2022-09-07T22:36:24.240Z,17.13
2022-09-07T22:38:55.590Z,17.11
2022-09-07T22:41:25.447Z,17.06
2022-09-07T22:43:53.118Z,17.02
2022-09-07T22:46:23.292Z,16.99
2022-09-07T22:48:51.263Z,16.96
2022-09-07T22:51:19.406Z,16.94
2022-09-07T22:53:47.606Z,16.93
2022-09-07T22:56:19.142Z,16.89
2022-09-07T22:58:48.060Z,16.87
2022-09-07T23:01:16.606Z,16.85
2022-09-07T23:03:45.129Z,16.82
2022-09-07T23:06:21.473Z,16.78
2022-09-07T23:08:49.218Z,16.75
2022-09-07T23:11:18.525Z,16.70
2022-09-07T23:13:46.155Z,16.68
2022-09-07T23:16:13.860Z,16.66
2022-09-07T23:18:41.562Z,16.64
2022-09-07T23:21:09.403Z,16.62
2022-09-07T23:23:37.150Z,16.60
2022-09-07T23:26:06.256Z,16.58
2022-09-07T23:28:35.465Z,16.56
2022-09-07T23:31:03.032Z,16.55
2022-09-07T23:33:32.021Z,16.52
2022-09-07T23:36:04.707Z,16.50
2022-09-07T23:38:33.099Z,16.47
2022-09-07T23:41:01.208Z,16.44
2022-09-07T23:43:31.318Z,16.42
2022-09-07T23:46:00.749Z,16.39
2022-09-07T23:48:29.026Z,16.37
2022-09-07T23:50:56.636Z,16.35
2022-09-07T23:53:24.529Z,16.33
2022-09-07T23:55:53.729Z,16.32
2022-09-07T23:58:22.276Z,16.34
